createdAt,value
2022-09-09T00:01:28.409Z,100243.19
2022-09-09T00:04:00.867Z,100245.06
2022-09-09T00:06:43.963Z,100238.84
2022-09-09T00:09:19.223Z,100243.19
2022-09-09T00:11:51.893Z,100224.81
2022-09-09T00:14:34.979Z,100225.53
2022-09-09T00:17:13.207Z,100229.03
2022-09-09T00:19:51.372Z,100228.63
2022-09-09T00:22:20.934Z,100226.34
2022-09-09T00:25:04.139Z,100227.38
2022-09-09T00:27:42.667Z,100215.78
2022-09-09T00:30:15.315Z,100217.63
2022-09-09T00:32:44.437Z,100222.00
2022-09-09T00:35:10.808Z,100212.22
2022-09-09T00:37:39.571Z,100209.53
2022-09-09T00:40:23.279Z,100201.38
2022-09-09T00:42:55.596Z,100213.09
2022-09-09T00:46:13.214Z,100214.91
2022-09-09T00:48:53.483Z,100200.63
2022-09-09T00:51:35.350Z,100204.34
2022-09-09T00:54:20.590Z,100203.50
2022-09-09T00:57:07.382Z,100196.44
2022-09-09T00:59:51.332Z,100201.84
2022-09-09T01:02:40.069Z,100204.53
2022-09-09T01:05:14.673Z,100186.25
2022-09-09T01:07:47.935Z,100169.63
2022-09-09T01:10:35.638Z,100194.81
2022-09-09T01:13:06.556Z,100186.72
2022-09-09T01:15:35.235Z,100152.06
2022-09-09T01:18:06.878Z,100185.84
2022-09-09T01:20:48.636Z,100185.84
2022-09-09T01:23:39.497Z,100175.28
2022-09-09T01:26:16.301Z,100170.03
2022-09-09T01:28:49.573Z,100188.78
2022-09-09T01:31:23.576Z,100181.69
2022-09-09T01:33:50.292Z,100187.09
2022-09-09T01:36:34.692Z,100141.28
2022-09-09T01:39:01.062Z,100180.03
2022-09-09T01:41:28.123Z,100160.47
2022-09-09T01:43:56.383Z,100167.72
2022-09-09T01:46:24.162Z,100152.97
2022-09-09T01:48:55.711Z,100168.16
2022-09-09T01:51:22.760Z,100167.97
2022-09-09T01:53:49.275Z,100156.94
2022-09-09T01:56:36.750Z,100164.25
2022-09-09T01:59:12.239Z,100162.59
2022-09-09T02:02:12.464Z,100160.91
2022-09-09T02:05:17.792Z,100163.59
2022-09-09T02:07:49.530Z,100158.41
2022-09-09T02:10:22.522Z,100161.94
2022-09-09T02:12:56.902Z,100135.91
2022-09-09T02:15:49.295Z,100147.59
2022-09-09T02:18:25.390Z,100148.22
2022-09-09T02:20:54.240Z,100149.47
2022-09-09T02:23:21.853Z,100148.47
2022-09-09T02:25:50.039Z,100144.09
2022-09-09T02:28:18.467Z,100138.47
2022-09-09T02:30:48.145Z,100133.47
2022-09-09T02:33:15.359Z,100131.59
2022-09-09T02:35:44.960Z,100150.53
2022-09-09T02:38:14.759Z,100139.56
2022-09-09T02:40:41.200Z,100128.09
2022-09-09T02:43:07.651Z,100143.06
2022-09-09T02:45:50.102Z,100133.13
2022-09-09T02:48:31.106Z,100136.00
2022-09-09T02:51:11.445Z,100133.31
2022-09-09T02:53:51.975Z,100129.78
2022-09-09T02:56:22.747Z,100126.22
2022-09-09T02:58:52.161Z,100128.13
2022-09-09T03:01:18.888Z,100122.28
2022-09-09T03:03:47.411Z,100133.53
2022-09-09T03:06:13.852Z,100137.22
2022-09-09T03:08:40.269Z,100128.13
2022-09-09T03:11:08.186Z,100129.97
2022-09-09T03:13:34.886Z,100131.00
2022-09-09T03:16:01.479Z,100132.88
2022-09-09T03:18:29.124Z,100131.19
2022-09-09T03:20:55.514Z,100130.19
2022-09-09T03:23:22.661Z,100131.84
2022-09-09T03:25:50.793Z,100135.75
2022-09-09T03:28:17.278Z,100121.84
2022-09-09T03:30:43.787Z,100122.25
2022-09-09T03:33:10.231Z,100129.38
2022-09-09T03:35:37.096Z,100120.00
2022-09-09T03:38:03.727Z,100118.31
2022-09-09T03:40:30.106Z,100126.66
2022-09-09T03:42:56.463Z,100121.28
2022-09-09T03:45:22.824Z,100120.41
2022-09-09T03:47:50.016Z,100123.13
2022-09-09T03:50:16.450Z,100118.78
2022-09-09T03:52:43.799Z,100114.22
2022-09-09T03:55:10.316Z,100110.22
2022-09-09T03:57:37.114Z,100103.19
2022-09-09T04:00:08.884Z,100109.84
2022-09-09T04:02:35.441Z,100088.81
2022-09-09T04:05:02.072Z,100106.31
2022-09-09T04:07:29.123Z,100105.47
2022-09-09T04:09:55.635Z,100095.28
2022-09-09T04:12:23.360Z,100083.88
2022-09-09T04:14:49.982Z,100099.06
2022-09-09T04:17:16.550Z,100091.38
2022-09-09T04:19:43.312Z,100099.06
2022-09-09T04:22:10.345Z,100093.03
2022-09-09T04:24:36.808Z,100097.59
2022-09-09T04:27:03.484Z,100084.91
2022-09-09T04:29:29.851Z,100098.63
2022-09-09T04:31:56.267Z,100093.03
2022-09-09T04:34:22.703Z,100092.19
2022-09-09T04:36:49.100Z,100092.41
2022-09-09T04:39:15.578Z,100097.59
2022-09-09T04:41:41.969Z,100090.34
2022-09-09T04:44:08.401Z,100087.84
2022-09-09T04:46:37.612Z,100092.19
2022-09-09T04:49:04.013Z,100094.88
2022-09-09T04:51:32.080Z,100091.38
2022-09-09T04:53:58.561Z,100078.66
2022-09-09T04:56:27.795Z,100080.34
2022-09-09T04:58:54.610Z,100085.97
2022-09-09T05:01:23.027Z,100093.03
2022-09-09T05:03:49.733Z,100081.38
2022-09-09T05:06:18.844Z,100089.50
2022-09-09T05:08:45.744Z,100094.69
2022-09-09T05:11:20.739Z,100092.19
2022-09-09T05:13:47.888Z,100089.50
2022-09-09T05:16:15.119Z,100094.06
2022-09-09T05:18:43.674Z,100094.06
2022-09-09T05:21:11.081Z,100077.84
2022-09-09T05:23:38.495Z,100073.69
2022-09-09T05:26:06.200Z,100091.38
2022-09-09T05:28:35.691Z,100088.66
2022-09-09T05:31:09.065Z,100083.28
2022-09-09T05:33:36.935Z,100071.63
2022-09-09T05:36:08.973Z,100087.84
2022-09-09T05:38:37.006Z,100085.34
2022-09-09T05:41:04.692Z,100092.41
2022-09-09T05:43:33.392Z,100094.25
2022-09-09T05:46:05.569Z,100089.72
2022-09-09T05:48:34.058Z,100097.81
2022-09-09T05:51:01.797Z,100097.81
2022-09-09T05:53:28.446Z,100093.22
2022-09-09T05:56:06.036Z,100091.38
2022-09-09T05:58:33.340Z,100097.81
2022-09-09T06:01:14.592Z,100097.16
2022-09-09T06:03:42.523Z,100098.81
2022-09-09T06:06:11.446Z,100098.81
2022-09-09T06:08:40.523Z,100091.56
2022-09-09T06:11:09.894Z,100093.41
2022-09-09T06:13:38.427Z,100101.50
2022-09-09T06:16:05.588Z,100102.34
2022-09-09T06:18:32.034Z,100087.78
2022-09-09T06:21:01.483Z,100088.03
2022-09-09T06:23:29.429Z,100088.63
2022-09-09T06:26:14.805Z,100095.28
2022-09-09T06:28:43.065Z,100089.44
2022-09-09T06:31:11.816Z,100099.84
2022-09-09T06:33:42.893Z,100100.69
2022-09-09T06:36:15.818Z,100104.19
2022-09-09T06:38:43.377Z,100095.06
2022-09-09T06:41:11.168Z,100099.22
2022-09-09T06:43:37.645Z,100093.38
2022-09-09T06:46:07.207Z,100088.53
2022-09-09T06:48:33.746Z,100107.50
2022-09-09T06:51:09.245Z,100110.63
2022-09-09T06:53:37.004Z,100106.06
2022-09-09T06:56:19.515Z,100102.75
2022-09-09T06:58:46.547Z,100098.56
2022-09-09T07:01:17.073Z,100096.06
2022-09-09T07:03:46.206Z,100097.34
2022-09-09T07:06:21.051Z,100104.59
2022-09-09T07:08:56.653Z,100096.53
2022-09-09T07:11:26.699Z,100099.22
2022-09-09T07:13:53.774Z,100109.16
2022-09-09T07:16:24.574Z,100108.13
2022-09-09T07:18:51.991Z,100116.41
2022-09-09T07:21:20.099Z,100121.78
2022-09-09T07:23:46.475Z,100114.56
2022-09-09T07:26:20.140Z,100111.88
2022-09-09T07:28:47.575Z,100111.00
2022-09-09T07:31:21.441Z,100120.13
2022-09-09T07:33:49.283Z,100115.13
2022-09-09T07:36:22.751Z,100120.13
2022-09-09T07:38:55.143Z,100118.44
2022-09-09T07:41:25.618Z,100125.53
2022-09-09T07:43:54.837Z,100120.31
2022-09-09T07:46:23.456Z,100114.09
2022-09-09T07:48:53.609Z,100104.28
2022-09-09T07:51:23.421Z,100121.16
2022-09-09T07:53:53.807Z,100124.88
2022-09-09T07:56:22.754Z,100118.41
2022-09-09T07:58:50.016Z,100104.06
2022-09-09T08:01:20.952Z,100133.78
2022-09-09T08:03:56.572Z,100133.78
2022-09-09T08:06:23.213Z,100132.97
2022-09-09T08:08:52.304Z,100138.34
2022-09-09T08:11:18.862Z,100102.72
2022-09-09T08:13:45.875Z,100142.06
2022-09-09T08:16:18.516Z,100142.06
2022-09-09T08:18:45.703Z,100142.91
2022-09-09T08:21:15.123Z,100148.31
2022-09-09T08:23:42.486Z,100149.31
2022-09-09T08:26:17.274Z,100150.16
2022-09-09T08:28:44.538Z,100152.84
2022-09-09T08:31:17.342Z,100148.50
2022-09-09T08:33:46.905Z,100147.84
2022-09-09T08:36:17.190Z,100127.22
2022-09-09T08:38:44.466Z,100148.50
2022-09-09T08:41:37.952Z,100152.00
2022-09-09T08:44:10.691Z,100158.22
2022-09-09T08:46:57.714Z,100158.22
2022-09-09T08:49:50.844Z,100144.53
2022-09-09T08:52:22.801Z,100137.47
2022-09-09T08:54:52.579Z,100141.19
2022-09-09T08:57:28.914Z,100153.88
2022-09-09T08:59:57.576Z,100164.25
2022-09-09T09:02:38.895Z,100154.94
2022-09-09T09:05:33.630Z,100150.94
2022-09-09T09:08:17.632Z,100167.81
2022-09-09T09:10:44.104Z,100171.34
2022-09-09T09:13:31.983Z,100177.75
2022-09-09T09:16:28.262Z,100183.13
2022-09-09T09:18:56.046Z,100181.47
2022-09-09T09:21:31.214Z,100186.88
2022-09-09T09:24:00.717Z,100183.34
2022-09-09T09:26:34.106Z,100185.19
2022-09-09T09:29:10.212Z,100164.78
2022-09-09T09:31:36.583Z,100178.13
2022-09-09T09:34:03.459Z,100191.22
2022-09-09T09:36:42.431Z,100188.53
2022-09-09T09:41:58.650Z,100190.19
2022-09-09T09:44:29.099Z,100191.03
2022-09-09T09:47:07.864Z,100194.56
2022-09-09T09:49:34.427Z,100201.63
2022-09-09T09:52:05.295Z,100200.81
2022-09-09T09:54:36.965Z,100199.75
2022-09-09T09:57:11.899Z,100199.75
2022-09-09T09:59:41.672Z,100196.88
2022-09-09T10:02:13.896Z,100200.41
2022-09-09T10:04:40.449Z,100203.91
2022-09-09T10:07:20.991Z,100203.91
2022-09-09T10:09:54.773Z,100186.22
2022-09-09T10:12:49.760Z,100204.56
2022-09-09T10:15:34.458Z,100208.94
2022-09-09T10:18:35.275Z,100204.38
2022-09-09T10:21:33.468Z,100201.03
2022-09-09T10:24:28.030Z,100216.81
2022-09-09T10:27:06.371Z,100208.72
2022-09-09T10:29:54.749Z,100222.19
2022-09-09T10:32:27.364Z,100214.97
2022-09-09T10:34:57.163Z,100213.09
2022-09-09T10:37:49.267Z,100219.31
2022-09-09T10:40:21.866Z,100219.31
2022-09-09T10:42:48.371Z,100221.19
2022-09-09T10:45:56.038Z,100219.31
2022-09-09T10:48:35.444Z,100221.00
2022-09-09T10:51:29.773Z,100218.31
2022-09-09T10:54:38.926Z,100217.28
2022-09-09T10:57:21.706Z,100207.25
2022-09-09T10:59:53.946Z,100224.31
2022-09-09T11:02:30.919Z,100225.16
2022-09-09T11:05:07.638Z,100231.38
2022-09-09T11:07:40.483Z,100229.34
2022-09-09T11:10:19.261Z,100203.09
2022-09-09T11:12:50.012Z,100227.28
2022-09-09T11:15:30.351Z,100228.94
2022-09-09T11:18:02.750Z,100241.41
2022-09-09T11:20:29.342Z,100231.00
2022-09-09T11:23:03.535Z,100232.91
2022-09-09T11:25:38.646Z,100226.63
2022-09-09T11:28:42.179Z,100246.22
2022-09-09T11:31:40.629Z,100253.25
2022-09-09T11:34:26.805Z,100256.81
2022-09-09T11:37:09.157Z,100248.50
2022-09-09T11:40:20.558Z,100255.59
2022-09-09T11:42:50.854Z,100249.78
2022-09-09T11:45:29.562Z,100256.69
2022-09-09T11:47:58.415Z,100255.66
2022-09-09T11:50:24.718Z,100259.00
2022-09-09T11:52:52.699Z,100258.38
2022-09-09T11:55:30.590Z,100254.03
2022-09-09T11:58:01.835Z,100260.06
2022-09-09T12:00:34.884Z,100262.59
2022-09-09T12:03:01.355Z,100261.94
2022-09-09T12:05:58.158Z,100273.19
2022-09-09T12:08:29.431Z,100274.84
2022-09-09T12:11:00.183Z,100275.66
2022-09-09T12:13:28.039Z,100274.00
2022-09-09T12:15:57.162Z,100270.66
2022-09-09T12:18:26.413Z,100277.34
2022-09-09T12:21:04.897Z,100278.19
2022-09-09T12:23:39.915Z,100279.00
2022-09-09T12:26:16.679Z,100275.47
2022-09-09T12:29:00.675Z,100266.56
2022-09-09T12:31:45.615Z,100275.06
2022-09-09T12:34:12.890Z,100279.47
2022-09-09T12:36:42.220Z,100272.19
2022-09-09T12:39:20.674Z,100273.03
2022-09-09T12:41:57.633Z,100267.78
2022-09-09T12:44:25.883Z,100271.19
2022-09-09T12:46:54.081Z,100274.53
2022-09-09T12:49:29.474Z,100275.34
2022-09-09T12:51:58.289Z,100275.16
2022-09-09T12:54:24.767Z,100276.81
2022-09-09T12:56:51.258Z,100280.34
2022-09-09T12:59:26.588Z,100276.16
2022-09-09T13:01:59.971Z,100282.03
2022-09-09T13:04:27.149Z,100275.78
2022-09-09T13:06:53.928Z,100272.06
2022-09-09T13:09:20.755Z,100273.72
2022-09-09T13:11:54.441Z,100270.19
2022-09-09T13:14:33.429Z,100263.72
2022-09-09T13:17:02.557Z,100265.84
2022-09-09T13:19:33.638Z,100271.66
2022-09-09T13:22:01.742Z,100273.53
2022-09-09T13:24:34.777Z,100270.81
2022-09-09T13:27:04.007Z,100273.34
2022-09-09T13:29:32.226Z,100278.72
2022-09-09T13:32:17.319Z,100274.16
2022-09-09T13:34:53.143Z,100265.06
2022-09-09T13:37:42.126Z,100259.66
2022-09-09T13:40:18.903Z,100262.91
2022-09-09T13:42:45.889Z,100272.28
2022-09-09T13:45:21.590Z,100283.72
2022-09-09T13:47:53.046Z,100278.53
2022-09-09T13:50:24.337Z,100281.03
2022-09-09T13:52:54.283Z,100281.84
2022-09-09T13:55:23.835Z,100281.84
2022-09-09T13:58:01.800Z,100288.09
2022-09-09T14:00:31.346Z,100280.19
2022-09-09T14:02:57.848Z,100292.66
2022-09-09T14:05:24.718Z,100274.94
2022-09-09T14:07:53.322Z,100288.09
2022-09-09T14:10:20.527Z,100290.81
2022-09-09T14:12:47.647Z,100292.66
2022-09-09T14:15:15.356Z,100285.34
2022-09-09T14:17:41.783Z,100287.84
2022-09-09T14:20:09.461Z,100291.00
2022-09-09T14:22:36.851Z,100275.41
2022-09-09T14:25:04.279Z,100274.13
2022-09-09T14:27:31.141Z,100287.25
2022-09-09T14:29:58.700Z,100288.28
2022-09-09T14:32:25.087Z,100292.47
2022-09-09T14:34:51.540Z,100286.63
2022-09-09T14:37:18.456Z,100279.09
2022-09-09T14:39:45.249Z,100184.69
2022-09-09T14:42:12.116Z,100290.41
2022-09-09T14:44:42.001Z,100288.34
2022-09-09T14:47:09.539Z,100277.94
2022-09-09T14:49:36.631Z,100293.19
2022-09-09T14:52:04.128Z,100292.81
2022-09-09T14:54:30.911Z,100289.66
2022-09-09T14:56:57.737Z,100307.66
2022-09-09T14:59:24.269Z,100308.91
2022-09-09T15:01:50.771Z,100304.16
2022-09-09T15:04:17.847Z,100288.13
2022-09-09T15:06:48.016Z,100305.63
2022-09-09T15:09:15.011Z,100298.38
2022-09-09T15:11:41.470Z,100266.84
2022-09-09T15:14:09.880Z,100304.78
2022-09-09T15:16:36.678Z,100307.28
2022-09-09T15:19:04.075Z,100308.34
2022-09-09T15:21:36.123Z,100304.78
2022-09-09T15:24:02.737Z,100309.34
2022-09-09T15:26:31.043Z,100307.25
2022-09-09T15:29:00.015Z,100309.72
2022-09-09T15:31:31.528Z,100319.91
2022-09-09T15:34:02.793Z,100313.47
2022-09-09T15:36:33.268Z,100303.47
2022-09-09T15:39:01.119Z,100318.88
2022-09-09T15:41:29.053Z,100317.00
2022-09-09T15:44:01.301Z,100322.41
2022-09-09T15:46:28.346Z,100326.97
2022-09-09T15:49:04.029Z,100326.78
2022-09-09T15:51:42.305Z,100331.34
2022-09-09T15:54:11.089Z,100335.72
2022-09-09T15:56:37.551Z,100329.25
2022-09-09T15:59:04.442Z,100288.16
2022-09-09T16:01:32.750Z,100336.31
2022-09-09T16:04:00.887Z,100339.22
2022-09-09T16:06:29.345Z,100340.09
2022-09-09T16:08:57.613Z,100343.63
2022-09-09T16:11:27.706Z,100345.50
2022-09-09T16:13:55.708Z,100351.72
2022-09-09T16:16:25.219Z,100352.31
2022-09-09T16:18:57.315Z,100361.69
2022-09-09T16:21:31.935Z,100362.50
2022-09-09T16:24:00.544Z,100357.94
2022-09-09T16:26:28.585Z,100363.34
2022-09-09T16:28:59.184Z,100357.31
2022-09-09T16:31:27.277Z,100360.00
2022-09-09T16:33:53.918Z,100349.34
2022-09-09T16:36:26.207Z,100362.06
2022-09-09T16:38:58.265Z,100346.22
2022-09-09T16:41:25.823Z,100363.09
2022-09-09T16:44:06.748Z,100360.41
2022-09-09T16:46:41.559Z,100355.00
2022-09-09T16:49:13.638Z,100358.31
2022-09-09T16:51:45.786Z,100364.53
2022-09-09T16:54:14.776Z,100353.19
2022-09-09T16:56:42.970Z,100364.72
2022-09-09T16:59:17.433Z,100381.97
2022-09-09T17:01:46.498Z,100395.44
2022-09-09T17:04:17.201Z,100390.06
2022-09-09T17:06:53.018Z,100390.25
2022-09-09T17:09:20.982Z,100395.63
2022-09-09T17:11:48.323Z,100388.56
2022-09-09T17:14:18.228Z,100380.78
2022-09-09T17:16:45.379Z,100391.25
2022-09-09T17:19:13.249Z,100371.84
2022-09-09T17:21:54.513Z,100352.63
2022-09-09T17:24:30.220Z,100390.44
2022-09-09T17:26:57.161Z,100380.19
2022-09-09T17:29:23.593Z,100401.41
2022-09-09T17:31:50.047Z,100392.03
2022-09-09T17:34:16.606Z,100400.38
2022-09-09T17:36:42.988Z,100404.09
2022-09-09T17:39:09.606Z,100400.13
2022-09-09T17:41:38.555Z,100411.34
2022-09-09T17:46:42.894Z,100414.03
2022-09-09T17:49:12.941Z,100412.19
2022-09-09T17:51:42.246Z,100421.31
2022-09-09T17:54:20.740Z,100421.31
2022-09-09T17:56:48.256Z,100422.13
2022-09-09T17:59:16.806Z,100424.84
2022-09-09T18:01:48.054Z,100434.81
2022-09-09T18:04:16.554Z,100438.34
2022-09-09T18:06:47.088Z,100430.00
2022-09-09T18:09:20.761Z,100437.69
2022-09-09T18:11:50.526Z,100443.94
2022-09-09T18:14:20.203Z,100442.25
2022-09-09T18:16:47.291Z,100446.66
2022-09-09T18:19:18.231Z,100448.47
2022-09-09T18:21:45.074Z,100453.88
2022-09-09T18:24:12.972Z,100453.88
2022-09-09T18:26:41.039Z,100449.53
2022-09-09T18:29:11.087Z,100434.22
2022-09-09T18:31:38.083Z,100444.97
2022-09-09T18:34:06.464Z,100456.59
2022-09-09T18:36:36.095Z,100446.94
2022-09-09T18:39:04.367Z,100470.28
2022-09-09T18:41:34.091Z,100473.00
2022-09-09T18:44:04.255Z,100474.84
2022-09-09T18:46:33.020Z,100478.38
2022-09-09T18:48:59.437Z,100480.22
2022-09-09T18:51:28.254Z,100463.78
2022-09-09T18:54:03.756Z,100470.47
2022-09-09T18:56:31.032Z,100477.75
2022-09-09T18:59:00.726Z,100484.78
2022-09-09T19:01:28.670Z,100475.03
2022-09-09T19:03:56.923Z,100474.97
2022-09-09T19:06:26.939Z,100479.78
2022-09-09T19:08:57.493Z,100486.03
2022-09-09T19:11:28.156Z,100481.44
2022-09-09T19:13:59.564Z,100478.97
2022-09-09T19:16:29.245Z,100481.66
2022-09-09T19:18:59.079Z,100484.38
2022-09-09T19:21:28.955Z,100475.22
2022-09-09T19:24:12.978Z,100481.84
2022-09-09T19:26:43.366Z,100483.91
2022-09-09T19:29:15.140Z,100487.91
2022-09-09T19:31:55.148Z,100483.50
2022-09-09T19:34:29.630Z,100483.50
2022-09-09T19:36:56.013Z,100484.56
2022-09-09T19:39:22.392Z,100483.50
2022-09-09T19:41:49.300Z,100478.91
2022-09-09T19:44:17.034Z,100490.78
2022-09-09T19:46:45.775Z,100479.97
2022-09-09T19:49:12.646Z,100470.22
2022-09-09T19:51:39.050Z,100478.97
2022-09-09T19:54:09.010Z,100484.38
2022-09-09T19:56:37.686Z,100477.28
2022-09-09T19:59:06.335Z,100463.72
2022-09-09T20:01:40.025Z,100481.84
2022-09-09T20:04:07.129Z,100437.84
2022-09-09T20:06:36.779Z,100474.75
2022-09-09T20:09:04.120Z,100484.56
2022-09-09T20:11:30.592Z,100483.44
2022-09-09T20:13:57.032Z,100483.44
2022-09-09T20:16:29.007Z,100485.56
2022-09-09T20:18:58.115Z,100484.72
2022-09-09T20:21:27.234Z,100484.72
2022-09-09T20:23:55.852Z,100490.13
2022-09-09T20:26:25.187Z,100490.13
2022-09-09T20:28:53.498Z,100488.25
2022-09-09T20:31:22.242Z,100490.97
2022-09-09T20:33:48.786Z,100486.59
2022-09-09T20:36:20.809Z,100492.00
2022-09-09T20:38:50.309Z,100483.91
2022-09-09T20:41:22.440Z,100474.44
2022-09-09T20:43:50.386Z,100489.31
2022-09-09T20:46:18.075Z,100489.31
2022-09-09T20:48:45.940Z,100489.31
2022-09-09T20:51:13.531Z,100489.31
2022-09-09T20:53:40.230Z,100489.31
2022-09-09T20:56:07.308Z,100488.47
2022-09-09T20:58:34.459Z,100471.34
2022-09-09T21:01:02.289Z,100464.69
2022-09-09T21:03:39.526Z,100475.16
2022-09-09T21:06:07.282Z,100470.59
2022-09-09T21:08:34.958Z,100475.16
2022-09-09T21:11:04.202Z,100473.50
2022-09-09T21:13:33.216Z,100479.72
2022-09-09T21:16:00.270Z,100465.72
2022-09-09T21:18:29.713Z,100473.03
2022-09-09T21:20:56.591Z,100483.44
2022-09-09T21:23:23.863Z,100478.03
2022-09-09T21:25:50.798Z,100477.03
2022-09-09T21:28:17.691Z,100481.59
2022-09-09T21:30:49.327Z,100482.63
2022-09-09T21:33:16.735Z,100478.03
2022-09-09T21:35:43.163Z,100479.91
2022-09-09T21:38:16.182Z,100471.19
2022-09-09T21:40:43.323Z,100482.63
2022-09-09T21:43:11.152Z,100486.06
2022-09-09T21:45:39.195Z,100496.28
2022-09-09T21:48:06.761Z,100501.69
2022-09-09T21:50:40.442Z,100504.38
2022-09-09T21:53:07.253Z,100503.56
2022-09-09T21:55:34.777Z,100511.66
2022-09-09T21:58:01.152Z,100499.13
2022-09-09T22:00:27.542Z,100517.03
2022-09-09T22:02:54.057Z,100492.44
2022-09-09T22:05:20.470Z,100526.19
2022-09-09T22:07:46.887Z,100525.31
2022-09-09T22:10:13.582Z,100535.94
2022-09-09T22:12:40.023Z,100523.66
2022-09-09T22:15:09.606Z,100530.72
2022-09-09T22:17:35.987Z,100537.97
2022-09-09T22:20:02.755Z,100528.81
2022-09-09T22:22:29.194Z,100541.50
2022-09-09T22:24:55.635Z,100519.41
2022-09-09T22:27:22.031Z,100542.56
2022-09-09T22:29:48.406Z,100542.38
2022-09-09T22:32:14.930Z,100546.06
2022-09-09T22:34:41.386Z,100546.06
2022-09-09T22:37:08.142Z,100542.94
2022-09-09T22:39:34.665Z,100545.25
2022-09-09T22:42:01.155Z,100545.44
2022-09-09T22:44:27.841Z,100539.84
2022-09-09T22:46:55.740Z,100543.38
2022-09-09T22:49:23.108Z,100501.78
2022-09-09T22:51:50.102Z,100546.06
2022-09-09T22:54:21.623Z,100550.66
2022-09-09T22:56:49.629Z,100545.25
2022-09-09T22:59:16.723Z,100539.03
2022-09-09T23:01:43.275Z,100536.44
2022-09-09T23:04:09.969Z,100538.16
2022-09-09T23:06:38.479Z,100541.91
2022-09-09T23:09:05.418Z,100541.72
2022-09-09T23:11:37.093Z,100541.91
2022-09-09T23:14:05.355Z,100544.59
2022-09-09T23:16:39.443Z,100545.63
2022-09-09T23:19:09.927Z,100544.78
2022-09-09T23:21:38.319Z,100544.13
2022-09-09T23:24:06.509Z,100553.91
2022-09-09T23:26:33.262Z,100542.47
2022-09-09T23:29:02.331Z,100543.31
2022-09-09T23:31:33.004Z,100541.44
2022-09-09T23:34:01.222Z,100540.59
2022-09-09T23:36:31.308Z,100540.78
2022-09-09T23:39:03.589Z,100539.78
2022-09-09T23:41:30.995Z,100528.16
2022-09-09T23:43:57.743Z,100534.38
2022-09-09T23:46:27.655Z,100527.28
2022-09-09T23:48:54.603Z,100522.75
2022-09-09T23:51:23.911Z,100511.25
2022-09-09T23:53:53.262Z,100527.28
2022-09-09T23:56:21.243Z,100527.28
2022-09-09T23:58:49.058Z,100529.16
